• Join FlightAware (Why Join?)
  • Login
  • US Flag 
01:25AM EDT


 

Airport Tracker/Info


-or-


 

Live Flight TrackerFlight Track Log ✈ KDC200 ✈ 22-Jul-2013 ✈ CYVR - CYAZ

Flight Track Log - Related Links

Times and Time Zones

All times are in EDT time to prevent confusion due to time zone crossing. See the KDC200 flight status page for this flight to view local times or setup timezone preferences in your user account.

Time Position Orientation Groundspeed Altitude Reporting Facility
EDT Latitude Longitude Course Direction KTS MPH feet Rate Location/Type
02:29PM 49.1333 -123.1667 260° West 130 150 1,900  Level Vancouver Center
02:30PM 49.1000 -123.1333 147° Southeast 120 138 2,900 840 Climbing Vancouver Center
02:31PM 49.0667 -123.1333 180° South 140 161 3,600 600 Climbing Vancouver Center
02:32PM 49.0333 -123.1333 180° South 160 184 4,200 600 Climbing Vancouver Center
02:33PM 49.1450 -123.5284 260° West  Level FlightAware Approximate
02:33PM 49.0167 -123.2167 253° West 140 161 4,800  Level Vancouver Center
02:34PM 49.1386 -123.5861 260° West  Level FlightAware Approximate
02:34PM 49.0167 -123.2667 270° West 140 161 5,300  Level Vancouver Center
02:35PM 49.0167 -123.3167 270° West 140 161 5,800 480 Climbing Vancouver Center
02:36PM 49.0333 -123.4000 287° West 150 173 6,300 420 Climbing Vancouver Center
02:37PM 49.0333 -123.4500 270° West 150 173 6,700 300 Climbing Vancouver Center
02:38PM 49.0333 -123.5167 270° West 150 173 7,000 300 Climbing Vancouver Center
02:39PM 49.0333 -123.5667 270° West 150 173 7,400 300 Climbing Vancouver Center
02:40PM 49.0333 -123.6500 270° West 150 173 7,700 300 Climbing Vancouver Center
02:41PM 49.0333 -123.7000 270° West 150 173 8,100 360 Climbing Vancouver Center
02:42PM 49.0500 -123.7667 291° West 160 184 8,500 360 Climbing Vancouver Center
02:43PM 49.0500 -123.8500 270° West 160 184 8,900 300 Climbing Vancouver Center
02:44PM 49.0500 -123.9000 270° West 150 173 9,200 300 Climbing Vancouver Center
02:45PM 49.0500 -123.9833 270° West 150 173 9,600 300 Climbing Vancouver Center
02:46PM 49.0500 -124.0333 270° West 150 173 9,900 240 Climbing Vancouver Center
02:47PM 49.0500 -124.1000 270° West 150 173 10,100  Climbing Vancouver Center
02:48PM 49.0500 -124.1500 270° West 160 184 10,000 -60 Descending Vancouver Center
02:49PM 49.0500 -124.2333 270° West 160 184 10,000  Level Vancouver Center
02:50PM 49.0500 -124.3167 270° West 160 184 10,000  Level Vancouver Center
02:52PM 49.0500 -124.4333 270° West 160 184 10,000  Level Vancouver Center
02:53PM 49.0500 -124.5167 270° West 160 184 10,000 -60 Level Vancouver Center
02:54PM 49.0500 -124.5833 270° West 170 196 9,900 -300 Descending Vancouver Center
02:55PM 49.0500 -124.6333 270° West 170 196 9,500 -540 Descending Vancouver Center
02:56PM 49.0500 -124.7167 270° West 180 207 8,900 -660 Descending Vancouver Center
02:57PM 49.0333 -124.8167 256° West 180 207 8,200 -420 Descending Vancouver Center
02:58PM 49.0500 -124.8667 297° West 180 207 8,100 -120 Descending Vancouver Center
03:00PM 49.0500 -125.0000 270° West 150 173 7,900 -240 Descending Vancouver Center
03:01PM 49.0500 -125.0667 270° West 160 184 7,500 -300 Descending Vancouver Center
03:02PM 49.0500 -125.1500 270° West 160 184 7,400 -300 Descending Vancouver Center
03:03PM 49.0167 -125.2000 225° Southwest 160 184 7,000 -540 Descending Vancouver Center
03:04PM 48.9833 -125.2500 225° Southwest 180 207 6,400 -600 Descending Vancouver Center
03:05PM 48.9333 -125.3000 213° Southwest 180 207 5,800 -720 Descending Vancouver Center
03:06PM 48.9000 -125.3167 198° South 180 207 5,000 -840 Descending Vancouver Center
03:07PM 48.8833 -125.4000 253° West 180 207 4,200 -900 Descending Vancouver Center
03:08PM 48.9167 -125.4500 315° West 170 196 3,200 -600 Descending Vancouver Center
03:09PM 48.9500 -125.5333 301° West 170 196 3,100 -60 Descending Vancouver Center
03:10PM 48.9667 -125.5500 327° Northwest 150 173 3,100 -60 Level Vancouver Center
03:11PM 48.9667 -125.6000 270° West 130 150 3,000 -600 Descending Vancouver Center
03:12PM 48.9833 -125.6333 307° West 120 138 1,900 -900 Descending Vancouver Center
03:13PM 49.0167 -125.6833 315° West 120 138 1,200 -660 Descending Vancouver Center
03:14PM 49.0333 -125.7333 297° West 120 138 600 -600 Descending Vancouver Center
03:16PM 49.0667 -125.7667 307° West  Level FlightAware Approximate